HOURLY OBS INDEX

058

North Coast

BALLINA AIRPORT AWS

Site: 058198
Alt: 1.3m
2km E of BALLINA


  Time     Wind        Temp  DP   Baro     Rain since   Rain past  Vis(m), Cloud(base in m), Weather
  local        km/h                         9am  last   hr   10m    
Mon 20:00  NNE 15/ 20  22.7 21.4  1015.1   ----  ----  ----  ----   10000 
Mon 20:00  NNE 15/ 20  22.7 21.4  1015.1   ----  ----  ----  ----   10000 
Mon 20:30  NNE 13/ 17  22.1 20.2  1015.7   ----  ----  ----  ----   10000 
Mon 20:30  NNE 13/ 17  22.1 20.2  1015.7   ----  ----  ----  ----   10000 
Mon 21:00  NNE 15/ 19  22.1 20.4  1015.7   ----  ----  ----  ----   10000 
Mon 21:00  NNE 15/ 19  22.1 20.4  1015.7   ----  ----  ----  ----   10000 
Mon 21:30    N 11/ 17  21.8 20.1  1016.1   ----  ----  ----  ----   10000 
Mon 22:00    N 11/ 15  21.3 19.2  1016.2   ----  ----  ----  ----   10000 
Mon 22:30  NNE 11/ 15  21.2 19.5  1016.3   ----  ----  ----  ----   10000 
Mon 23:00  NNE 13/ 17  21.1 19.7  1016.1   ----  ----  ----  ----   10000 
Mon 23:30  NNE  9/ 13  21.0 20.0  1016.0   ----  ----  ----  ----   10000 
Tue 00:00    N  7/ 11  20.4 19.7  1015.9   ----  ----  ----  ----   10000 
Tue 00:30    N  9/ 11  20.3 19.6  1015.6   ----  ----  ----  ----   10000 
Tue 01:00    N  2/  6  19.8 19.1  1015.5   ----  ----  ----  ----    9000 
Tue 01:30    C  0/  0  19.1 18.9  1015.4   ----  ----  ----  ----    9000 

BYRON BAY (CAPE BYRON AWS)

Site: 058216
Alt: 95.0m
24km NNE of BALLINA


  Time     Wind        Temp  DP   Baro     Rain since   Rain past  Vis(m), Cloud(base in m), Weather
  local        km/h                         9am  last   hr   10m    
Mon 20:00  NNE 19/ 28  23.2 18.5  1016.1    0.0   0.0   0.0   0.0   ----- 
Mon 20:00  NNE 19/ 28  23.2 18.5  1016.1    0.0   0.0  ----   0.0   ----- 
Mon 20:30  NNE 19/ 28  23.1 18.0  1016.5    0.0   0.0   0.0   0.0   ----- 
Mon 20:30  NNE 19/ 28  23.1 18.0  1016.5    0.0   0.0  ----   0.0   ----- 
Mon 21:00  NNE 20/ 30  23.1 18.2  1016.8    0.0   0.0   0.0   0.0   ----- 
Mon 21:00  NNE 20/ 30  23.1 18.2  1016.8    0.0   0.0  ----   0.0   ----- 
Mon 21:30  NNE 19/ 26  22.9 18.0  1016.9    0.0   0.0   0.0   0.0   ----- 
Mon 22:00  NNE 20/ 30  22.9 18.4  1017.1    0.0   0.0   0.0   0.0   ----- 
Mon 22:30  NNE 19/ 28  22.8 18.8  1017.3    0.0   0.0   0.0   0.0   ----- 
Mon 23:00    N 19/ 24  22.8 18.8  1017.1    0.0   0.0   0.0   0.0   ----- 
Mon 23:30    N 13/ 19  21.9 19.5  1016.9    0.0   0.0   0.0   0.0   ----- 
Tue 00:00    N 13/ 17  21.4 19.3  1016.8    0.0   0.0   0.0   0.0   ----- 
Tue 00:30    N 13/ 17  21.3 19.2  1016.4    0.0   0.0   0.0   0.0   ----- 
Tue 01:00  NNW 11/ 15  21.2 19.1  1016.4    0.0   0.0   0.0   0.0   ----- 
Tue 01:30    N 13/ 19  21.2 19.1  1016.0    0.0   0.0   0.0   0.0   ----- 

CASINO AIRPORT AWS

Site: 058208
Alt: 20.9m
3km S of CASINO


  Time     Wind        Temp  DP   Baro     Rain since   Rain past  Vis(m), Cloud(base in m), Weather
  local        km/h                         9am  last   hr   10m    
Mon 20:00    E 15/ 20  23.2 17.0  1014.4    0.0   0.0   0.0   0.0   ----- 
Mon 20:00    E 15/ 20  23.2 17.0  1014.4    0.0   0.0  ----   0.0   ----- 
Mon 20:30    E 15/ 17  22.4 17.1  1014.8    0.0   0.0   0.0   0.0   ----- 
Mon 20:30    E 15/ 17  22.4 17.1  1014.8    0.0   0.0  ----   0.0   ----- 
Mon 21:00   SE  9/ 11  20.7 16.1  1015.3    0.0   0.0   0.0   0.0   ----- 
Mon 21:00   SE  9/ 11  20.7 16.1  1015.3    0.0   0.0  ----   0.0   ----- 
Mon 21:30    S  6/  9  20.0 16.2  1015.5    0.0   0.0   0.0   0.0   ----- 
Mon 22:00   SE  7/  9  19.5 16.3  1015.8    0.0   0.0   0.0   0.0   ----- 
Mon 22:30  SSE  7/  9  19.2 16.4  1015.9    0.0   0.0   0.0   0.0   ----- 
Mon 23:00  SSE  6/  6  18.8 16.2  1015.8    0.0   0.0   0.0   0.0   ----- 
Mon 23:30  SSW  7/  9  17.8 15.8  1015.9    0.0   0.0   0.0   0.0   ----- 
Tue 00:00   SW  7/  9  17.0 15.0  1015.8    0.0   0.0   0.0   0.0   ----- 
Tue 00:30   SW  2/  6  17.0 15.2  1015.7    0.0   0.0   0.0   0.0   ----- 
Tue 01:00   SW  7/  7  17.1 15.6  1015.6    0.0   0.0   0.0   0.0   ----- 
Tue 01:30    C  0/  4  16.2 14.2  1015.4    0.0   0.0   0.0   0.0   ----- 

EVANS HEAD RAAF BOMBING RANGE AWS

Site: 058212
Alt: 62.5m
41km SSW of BALLINA


  Time     Wind        Temp  DP   Baro     Rain since   Rain past  Vis(m), Cloud(base in m), Weather
  local        km/h                         9am  last   hr   10m    
Mon 20:00    N 19/ 30  22.1 18.3  1015.1    0.0   0.0   0.0   0.0   ----- 
Mon 20:00    N 19/ 30  22.1 18.3  1015.1    0.0   0.0  ----   0.0   ----- 
Mon 20:30    N 17/ 28  21.6 18.2  1015.4    0.0   0.0   0.0   0.0   ----- 
Mon 20:30    N 17/ 28  21.6 18.2  1015.4    0.0   0.0  ----   0.0   ----- 
Mon 21:00    N 17/ 28  21.4 18.4  1015.7    0.0   0.0   0.0   0.0   ----- 
Mon 21:00    N 17/ 28  21.4 18.4  1015.7    0.0   0.0  ----   0.0   ----- 
Mon 21:30    N 17/ 24  21.1 18.5  1015.9    0.0   0.0   0.0   0.0   ----- 
Mon 22:00    N 17/ 24  20.9 18.3  1016.1    0.0   0.0   0.0   0.0   ----- 
Mon 22:30    N 15/ 20  20.6 18.4  1016.2    0.0   0.0   0.0   0.0   ----- 
Mon 23:00    N 13/ 19  20.1 18.1  1016.2    0.0   0.0   0.0   0.0   ----- 
Mon 23:30    N 13/ 19  20.1 18.2  1016.2    0.0   0.0   0.0   0.0   ----- 
Tue 00:00  NNE 15/ 19  20.1 18.2  1015.9    0.0   0.0   0.0   0.0   ----- 
Tue 00:30    N 15/ 19  19.8 18.1  1015.8    0.0   0.0   0.0   0.0   ----- 
Tue 01:00    N 13/ 17  19.7 18.0  1015.6    0.0   0.0   0.0   0.0   ----- 
Tue 01:30  NNW  9/ 13  19.3 17.6  1015.7    0.0   0.0   0.0   0.0   ----- 

GRAFTON AIRPORT AWS

Site: 058161
Alt: 25.1m
13km SE of GRAFTON


  Time     Wind        Temp  DP   Baro     Rain since   Rain past  Vis(m), Cloud(base in m), Weather
  local        km/h                         9am  last   hr   10m    
Mon 20:00  ENE 11/ 15  23.5 17.9  1015.7    0.0   0.0   0.0   0.0   10000 
Mon 20:00  ENE 11/ 15  23.5 17.9  1015.7    0.0   0.0  ----   0.0   10000 
Mon 20:30  ENE  9/ 13  22.9 18.0  1016.2    0.0   0.0   0.0   0.0   10000 
Mon 20:30  ENE  9/ 13  22.9 18.0  1016.2    0.0   0.0  ----   0.0   10000 
Mon 21:00   NE  9/ 11  22.3 18.1  1016.3    0.0   0.0   0.0   0.0   10000 
Mon 21:00   NE  9/ 11  22.3 18.1  1016.3    0.0   0.0  ----   0.0   10000 
Mon 21:30    E  6/  7  22.2 18.4  1016.5    0.0   0.0   0.0   0.0   10000 
Mon 22:00  ENE  6/  7  21.7 18.1  1016.8    0.0   0.0   0.0   0.0   10000 
Mon 22:30  ESE  4/  7  21.0 18.0  1016.8    0.0   0.0   0.0   0.0   10000 
Mon 23:00    E  6/  7  21.0 18.2  1016.6    0.0   0.0   0.0   0.0   10000 
Mon 23:30    E  6/  7  21.0 18.4  1016.7    0.0   0.0   0.0   0.0   10000 
Tue 00:00  ESE  6/  6  19.7 17.3  1016.5    0.0   0.0   0.0   0.0   10000 
Tue 00:30  SSE  7/  7  19.4 17.5  1016.4    0.0   0.0   0.0   0.0   10000 
Tue 01:00    S  6/  7  19.1 17.9  1016.3    0.0   0.0   0.0   0.0   10000 
Tue 01:30    C  0/  0  18.7 17.5  1015.7    0.0   0.0   0.0   0.0   10000 

GRAFTON RESEARCH STN

Site: 058077
Alt: 25.0m
7km NNE of GRAFTON


  Time     Wind        Temp  DP   Baro     Rain since   Rain past  Vis(m), Cloud(base in m), Weather
  local        km/h                         9am  last   hr   10m    
Mon 20:00    E 11/ 15  23.1 18.2  ------    0.0   0.0   0.0   0.0   ----- 
Mon 20:00    E 11/ 15  23.1 18.2  ------    0.0   0.0  ----   0.0   ----- 
Mon 20:30    E  9/ 13  22.5 18.5  ------    0.0   0.0   0.0   0.0   ----- 
Mon 20:30    E  9/ 13  22.5 18.5  ------    0.0   0.0  ----   0.0   ----- 
Mon 21:00  ESE  7/  9  21.7 18.5  ------    0.0   0.0   0.0   0.0   ----- 
Mon 21:00  ESE  7/  9  21.7 18.5  ------    0.0   0.0  ----   0.0   ----- 
Mon 21:30  ENE  6/  9  21.4 18.4  ------    0.0   0.0   0.0   0.0   ----- 
Mon 22:00    E  6/  7  21.0 18.4  ------    0.0   0.0   0.0   0.0   ----- 
Mon 22:30    E  4/  9  20.7 18.8  ------    0.0   0.0   0.0   0.0   ----- 
Mon 23:00    E  7/ 11  20.6 18.9  ------    0.0   0.0   0.0   0.0   ----- 
Mon 23:30    E  6/  7  20.3 18.8  ------    0.0   0.0   0.0   0.0   ----- 
Tue 00:00    E  6/  7  20.0 18.5  ------    0.0   0.0   0.0   0.0   ----- 
Tue 00:30    C  0/  6  19.9 18.6  ------    0.0   0.0   0.0   0.0   ----- 
Tue 01:00    C  0/  0  19.7 18.7  ------    0.0   0.0   0.0   0.0   ----- 
Tue 01:30    E  7/  9  19.4 18.6  ------    0.0   0.0   0.0   0.0   ----- 

LISMORE AIRPORT AWS

Site: 058214
Alt: 9.2m
3km SW of LISMORE


  Time     Wind        Temp  DP   Baro     Rain since   Rain past  Vis(m), Cloud(base in m), Weather
  local        km/h                         9am  last   hr   10m    
Mon 20:00  NNE 22/ 32  23.2 17.9  1014.4    0.0   0.0   0.0   0.0   10000 
Mon 20:00  NNE 22/ 32  23.2 17.9  1014.4    0.0   0.0  ----   0.0   10000 
Mon 20:30  NNE 20/ 28  23.0 18.1  1014.8    0.0   0.0   0.0   0.0   10000 
Mon 20:30  NNE 20/ 28  23.0 18.1  1014.8    0.0   0.0  ----   0.0   10000 
Mon 21:00  NNE 19/ 26  22.6 17.9  1015.1    0.0   0.0   0.0   0.0   10000 
Mon 21:00  NNE 19/ 26  22.6 17.9  1015.1    0.0   0.0  ----   0.0   10000 
Mon 21:30  NNE 17/ 24  22.3 18.1  1015.4    0.0   0.0   0.0   0.0   10000 
Mon 22:00  NNE 17/ 24  22.0 18.0  1015.7    0.0   0.0   0.0   0.0   10000 
Mon 22:30    N 15/ 24  20.9 17.7  1015.7    0.0   0.0   0.0   0.0   10000 
Mon 23:00    N 11/ 15  20.4 17.8  1015.7    0.0   0.0   0.0   0.0   10000 
Mon 23:30    N 13/ 17  20.1 17.9  1015.7    0.0   0.0   0.0   0.0   10000 
Tue 00:00    N 13/ 13  19.2 17.3  1015.5    0.0   0.0   0.0   0.0   10000 
Tue 00:30    N  9/ 13  18.4 16.9  1015.5    0.0   0.0   0.0   0.0   10000 
Tue 01:00    N  9/ 13  17.3 16.0  1015.3    0.0   0.0   0.0   0.0   10000 
Tue 01:30    C  0/  6  16.8 15.5  1015.3    0.0   0.0   0.0   0.0   10000 

YAMBA PILOT STATION

Site: 058012
Alt: 27.4m
50km NE of GRAFTON


  Time     Wind        Temp  DP   Baro     Rain since   Rain past  Vis(m), Cloud(base in m), Weather
  local        km/h                         9am  last   hr   10m    
Mon 20:00  NNE 13/ 20  22.8 21.1  1015.3    0.0   0.0   0.0   0.0   ----- 
Mon 20:00  NNE 13/ 20  22.8 21.1  1015.3    0.0   0.0  ----   0.0   ----- 
Mon 20:30  NNE 13/ 24  22.5 21.0  1015.6    0.0   0.0   0.0   0.0   ----- 
Mon 20:30  NNE 13/ 24  22.5 21.0  1015.6    0.0   0.0  ----   0.0   ----- 
Mon 21:00  NNE  9/ 17  22.3 20.9  1016.0    0.0   0.0   0.0   0.0   ----- 
Mon 21:00  NNE  9/ 17  22.3 20.9  1016.0    0.0   0.0  ----   0.0   ----- 
Mon 21:30  NNE 11/ 19  22.2 21.2  1016.2    0.0   0.0   0.0   0.0   ----- 
Mon 22:00  NNE 11/ 17  22.0 21.3  1016.3    0.0   0.0   0.0   0.0   ----- 
Mon 22:30  NNE 11/ 17  22.0 21.7  1016.5    0.0   0.0   0.0   0.0   ----- 
Mon 23:00  NNE  9/ 15  21.9 21.6  1016.3    0.0   0.0   0.0   0.0   ----- 
Mon 23:30    N  7/  9  21.6 21.3  1016.5    0.0   0.0   0.0   0.0   ----- 
Tue 00:00    N  6/  9  21.2 20.9  1016.1    0.0   0.0   0.0   0.0   ----- 
Tue 00:30    N  4/  7  21.1 20.8  1016.1    0.0   0.0   0.0   0.0   ----- 
Tue 01:00    N  6/  9  21.0 20.7  1015.9    0.0   0.0   0.0   0.0   ----- 
Tue 01:30    C  0/  6  20.8 20.5  1015.9    0.0   0.0   0.0   0.0   -----